createdAt,value
2023-02-16T00:01:31.618Z,5.70
2023-02-16T00:03:58.525Z,5.50
2023-02-16T00:06:25.603Z,6.20
2023-02-16T00:08:53.554Z,5.80
2023-02-16T00:11:48.119Z,7.60
2023-02-16T00:14:15.424Z,6.70
2023-02-16T00:16:42.436Z,5.30
2023-02-16T00:19:21.820Z,6.80
2023-02-16T00:21:50.465Z,4.10
2023-02-16T00:24:17.418Z,7.80
2023-02-16T00:26:45.560Z,6.20
2023-02-16T00:29:26.286Z,6.60
2023-02-16T00:31:56.277Z,6.80
2023-02-16T00:34:25.667Z,6.80
2023-02-16T00:36:54.848Z,6.90
2023-02-16T00:39:25.437Z,7.70
2023-02-16T00:42:15.119Z,5.80
2023-02-16T00:44:44.240Z,5.50
2023-02-16T00:47:36.973Z,7.80
2023-02-16T00:50:18.358Z,6.20
2023-02-16T00:52:46.767Z,6.60
2023-02-16T00:55:15.911Z,9.30
2023-02-16T00:58:05.312Z,6.60
2023-02-16T01:00:35.119Z,6.80
2023-02-16T01:03:07.236Z,5.70
2023-02-16T01:05:36.142Z,6.10
2023-02-16T01:08:28.415Z,6.10
2023-02-16T01:11:09.412Z,7.80
2023-02-16T01:13:46.048Z,10.90
2023-02-16T01:16:21.901Z,8.00
2023-02-16T01:18:48.728Z,7.30
2023-02-16T01:21:15.761Z,9.10
2023-02-16T01:23:42.920Z,8.60
2023-02-16T01:26:16.102Z,9.20
2023-02-16T01:28:43.636Z,7.70
2023-02-16T01:31:11.733Z,11.20
2023-02-16T01:33:40.753Z,8.90
2023-02-16T01:36:32.663Z,8.00
2023-02-16T01:39:00.488Z,7.70
2023-02-16T01:41:57.841Z,7.70
2023-02-16T01:44:29.962Z,8.20
2023-02-16T01:47:04.893Z,9.20
2023-02-16T01:49:33.604Z,7.00
2023-02-16T01:52:32.690Z,7.80
2023-02-16T01:55:09.590Z,6.10
2023-02-16T01:57:47.597Z,6.40
2023-02-16T02:00:28.646Z,7.50
2023-02-16T02:03:34.376Z,9.00
2023-02-16T02:06:01.010Z,8.30
2023-02-16T02:08:53.437Z,10.60
2023-02-16T02:11:34.441Z,7.80
2023-02-16T02:14:18.825Z,9.20
2023-02-16T02:19:27.894Z,8.70
2023-02-16T02:22:19.246Z,9.80
2023-02-16T02:24:58.064Z,9.30
2023-02-16T02:27:26.575Z,10.10
2023-02-16T02:30:08.710Z,8.70
2023-02-16T02:33:10.001Z,9.80
2023-02-16T02:35:51.176Z,10.80
2023-02-16T02:38:40.161Z,14.30
2023-02-16T02:41:55.962Z,11.40
2023-02-16T02:44:24.093Z,13.00
2023-02-16T02:46:51.947Z,14.60
2023-02-16T02:49:19.928Z,14.70
2023-02-16T02:51:47.114Z,20.40
2023-02-16T02:54:38.363Z,18.10
2023-02-16T02:57:41.224Z,21.80
2023-02-16T03:00:29.107Z,22.70
2023-02-16T03:03:02.996Z,21.90
2023-02-16T03:05:30.319Z,15.00
2023-02-16T03:08:05.863Z,16.20
2023-02-16T03:10:54.114Z,14.60
2023-02-16T03:13:33.068Z,15.70
2023-02-16T03:16:11.888Z,12.50
2023-02-16T03:18:58.838Z,11.90
2023-02-16T03:21:45.377Z,10.60
2023-02-16T03:24:35.199Z,8.90
2023-02-16T03:27:20.840Z,8.60
2023-02-16T03:29:49.180Z,10.30
2023-02-16T03:32:16.597Z,8.90
2023-02-16T03:34:43.721Z,7.40
2023-02-16T03:37:12.102Z,7.70
2023-02-16T03:39:58.409Z,8.20
2023-02-16T03:42:25.458Z,7.10
2023-02-16T03:44:57.080Z,7.70
2023-02-16T03:47:24.050Z,18.80
2023-02-16T03:49:50.816Z,27.80
2023-02-16T03:52:17.940Z,29.70
2023-02-16T03:54:44.784Z,28.80
2023-02-16T03:57:11.730Z,20.20
2023-02-16T03:59:38.880Z,16.40
2023-02-16T04:02:05.651Z,12.60
2023-02-16T04:04:32.623Z,10.40
2023-02-16T04:07:00.333Z,7.30
2023-02-16T04:09:27.128Z,9.10
2023-02-16T04:12:12.454Z,6.90
2023-02-16T04:14:41.033Z,8.60
2023-02-16T04:17:10.653Z,8.50
2023-02-16T04:19:37.896Z,7.80
2023-02-16T04:22:04.810Z,7.30
2023-02-16T04:24:31.566Z,6.40
2023-02-16T04:26:58.342Z,13.50
2023-02-16T04:29:25.571Z,11.10
2023-02-16T04:31:52.829Z,11.00
2023-02-16T04:34:20.180Z,15.10
2023-02-16T04:36:47.223Z,14.80
2023-02-16T04:39:14.532Z,20.30
2023-02-16T04:41:41.625Z,33.10
2023-02-16T04:44:08.878Z,30.60
2023-02-16T04:46:36.434Z,29.20
2023-02-16T04:49:04.869Z,30.50
2023-02-16T04:51:32.840Z,28.20
2023-02-16T04:54:00.948Z,31.40
2023-02-16T04:56:27.808Z,32.00
2023-02-16T04:58:55.119Z,27.10
2023-02-16T05:01:23.130Z,27.50
2023-02-16T05:03:49.995Z,24.40
2023-02-16T05:06:17.141Z,29.90
2023-02-16T05:08:43.945Z,25.80
2023-02-16T05:11:30.910Z,27.70
2023-02-16T05:14:17.472Z,25.00
2023-02-16T05:16:44.683Z,32.50
2023-02-16T05:19:14.851Z,49.80
2023-02-16T05:21:41.711Z,52.30
2023-02-16T05:24:09.729Z,47.30
2023-02-16T05:26:39.176Z,44.60
2023-02-16T05:29:06.165Z,38.60
2023-02-16T05:31:36.693Z,33.60
2023-02-16T05:34:03.593Z,30.00
2023-02-16T05:36:30.316Z,24.80
2023-02-16T05:38:57.386Z,25.90
2023-02-16T05:41:24.159Z,29.40
2023-02-16T05:43:55.422Z,29.30
2023-02-16T05:46:22.791Z,35.70
2023-02-16T05:48:49.842Z,40.80
2023-02-16T05:51:17.470Z,45.10
2023-02-16T05:53:44.403Z,50.90
2023-02-16T05:56:11.757Z,58.80
2023-02-16T05:58:38.662Z,48.50
2023-02-16T06:01:05.886Z,54.80
2023-02-16T06:03:35.309Z,49.50
2023-02-16T06:06:02.569Z,88.60
2023-02-16T06:08:34.046Z,92.40
2023-02-16T06:11:06.592Z,91.10
2023-02-16T06:13:33.831Z,81.20
2023-02-16T06:16:00.515Z,66.50
2023-02-16T06:18:27.390Z,63.70
2023-02-16T06:20:56.246Z,58.50
2023-02-16T06:23:23.243Z,47.70
2023-02-16T06:25:51.392Z,39.80
2023-02-16T06:28:18.416Z,33.90
2023-02-16T06:30:45.460Z,33.90
2023-02-16T06:33:12.928Z,25.50
2023-02-16T06:35:39.967Z,24.50
2023-02-16T06:38:08.114Z,19.60
2023-02-16T06:40:35.390Z,18.60
2023-02-16T06:43:02.461Z,20.50
2023-02-16T06:45:29.385Z,22.70
2023-02-16T06:47:56.855Z,20.60
2023-02-16T06:50:23.768Z,16.00
2023-02-16T06:52:51.116Z,16.50
2023-02-16T06:55:17.797Z,17.10
2023-02-16T06:57:45.124Z,16.40
2023-02-16T07:00:12.989Z,17.80
2023-02-16T07:02:39.664Z,10.90
2023-02-16T07:05:07.771Z,15.50
2023-02-16T07:07:34.465Z,17.10
2023-02-16T07:10:02.236Z,16.60
2023-02-16T07:12:31.231Z,18.30
2023-02-16T07:15:03.631Z,19.90
2023-02-16T07:17:31.046Z,15.90
2023-02-16T07:19:59.958Z,30.50
2023-02-16T07:22:29.392Z,30.60
2023-02-16T07:24:56.939Z,29.00
2023-02-16T07:27:24.617Z,38.10
2023-02-16T07:29:51.314Z,39.10
2023-02-16T07:32:18.408Z,38.40
2023-02-16T07:34:45.825Z,35.50
2023-02-16T07:37:12.898Z,38.50
2023-02-16T07:39:40.132Z,37.70
2023-02-16T07:42:06.907Z,29.80
2023-02-16T07:44:34.610Z,37.80
2023-02-16T07:47:01.270Z,39.90
2023-02-16T07:49:28.075Z,49.90
2023-02-16T07:51:54.835Z,37.70
2023-02-16T07:54:21.680Z,35.90
2023-02-16T07:56:49.130Z,38.10
2023-02-16T07:59:16.647Z,37.60
2023-02-16T08:01:43.572Z,33.60
2023-02-16T08:04:10.509Z,28.00
2023-02-16T08:06:38.137Z,24.60
2023-02-16T08:09:05.059Z,25.90
2023-02-16T08:11:34.542Z,23.00
2023-02-16T08:14:01.597Z,19.70
2023-02-16T08:16:28.620Z,21.30
2023-02-16T08:18:55.985Z,25.40
2023-02-16T08:21:24.677Z,15.70
2023-02-16T08:23:54.602Z,23.50
2023-02-16T08:26:22.819Z,21.00
2023-02-16T08:28:51.142Z,18.90
2023-02-16T08:31:25.605Z,18.40
2023-02-16T08:33:53.103Z,21.60
2023-02-16T08:36:22.923Z,19.80
2023-02-16T08:38:51.613Z,24.20
2023-02-16T08:41:22.477Z,23.80
2023-02-16T08:43:49.327Z,25.40
2023-02-16T08:46:17.969Z,24.50
2023-02-16T08:48:44.993Z,22.00
2023-02-16T08:51:17.054Z,19.70
2023-02-16T08:53:46.417Z,19.40
2023-02-16T08:56:16.445Z,15.00
2023-02-16T08:58:43.514Z,16.40
2023-02-16T09:01:12.022Z,17.70
2023-02-16T09:03:44.462Z,16.70
2023-02-16T09:06:13.180Z,14.80
2023-02-16T09:08:41.424Z,14.30
2023-02-16T09:11:11.425Z,15.10
2023-02-16T09:13:47.726Z,16.80
2023-02-16T09:16:16.983Z,13.80
2023-02-16T09:18:48.873Z,14.90
2023-02-16T09:21:20.918Z,16.00
2023-02-16T09:23:49.440Z,13.60
2023-02-16T09:26:37.784Z,13.50
2023-02-16T09:29:05.472Z,16.00
2023-02-16T09:31:34.420Z,15.90
2023-02-16T09:34:22.287Z,14.60
2023-02-16T09:36:49.454Z,14.80
2023-02-16T09:39:16.467Z,20.70
2023-02-16T09:41:53.159Z,17.30
2023-02-16T09:44:44.085Z,15.70
2023-02-16T09:47:22.913Z,15.10
2023-02-16T09:49:49.743Z,12.40
2023-02-16T09:52:22.756Z,11.50
2023-02-16T09:54:57.163Z,13.50
2023-02-16T09:57:26.975Z,14.90
2023-02-16T10:00:08.081Z,13.70
2023-02-16T10:02:58.743Z,14.40
2023-02-16T10:05:36.365Z,11.40
2023-02-16T10:08:42.013Z,12.40
2023-02-16T10:11:33.917Z,12.80
2023-02-16T10:14:08.262Z,16.50
2023-02-16T10:16:40.661Z,13.20
2023-02-16T10:19:23.173Z,12.40
2023-02-16T10:21:52.652Z,13.50
2023-02-16T10:24:19.937Z,12.90
2023-02-16T10:26:50.450Z,11.50
2023-02-16T10:29:20.124Z,13.70
2023-02-16T10:32:27.291Z,13.10
2023-02-16T10:35:14.503Z,13.40
2023-02-16T10:38:11.062Z,9.90
2023-02-16T10:40:55.249Z,8.60
2023-02-16T10:43:47.543Z,10.70
2023-02-16T10:46:25.598Z,12.10
2023-02-16T10:48:53.911Z,11.60
2023-02-16T10:51:21.145Z,15.70
2023-02-16T10:53:53.011Z,12.80
2023-02-16T10:56:43.954Z,11.00
2023-02-16T10:59:15.791Z,7.10
2023-02-16T11:01:44.853Z,9.30
2023-02-16T11:04:37.291Z,10.50
2023-02-16T11:07:12.675Z,10.20
2023-02-16T11:09:40.366Z,13.70
2023-02-16T11:12:14.994Z,10.80
2023-02-16T11:14:49.148Z,9.90
2023-02-16T11:17:19.678Z,10.10
2023-02-16T11:19:49.864Z,9.80
2023-02-16T11:22:37.113Z,10.90
2023-02-16T11:25:21.517Z,14.10
2023-02-16T11:27:56.485Z,11.40
2023-02-16T11:30:32.343Z,19.10
2023-02-16T11:33:01.177Z,14.30
2023-02-16T11:35:30.681Z,16.00
2023-02-16T11:37:58.341Z,13.50
2023-02-16T11:40:30.250Z,14.00
2023-02-16T11:42:58.266Z,14.60
2023-02-16T11:45:31.368Z,12.30
2023-02-16T11:48:10.591Z,10.90
2023-02-16T11:50:39.221Z,14.30
2023-02-16T11:53:09.200Z,10.90
2023-02-16T11:55:38.809Z,11.60
2023-02-16T11:58:12.770Z,13.80
2023-02-16T12:00:41.538Z,10.30
2023-02-16T12:03:19.272Z,13.10
2023-02-16T12:06:07.388Z,11.80
2023-02-16T12:08:43.299Z,16.60
2023-02-16T12:11:25.780Z,16.10
2023-02-16T12:14:28.623Z,10.60
2023-02-16T12:17:04.029Z,11.90
2023-02-16T12:19:39.955Z,9.60
2023-02-16T12:22:22.260Z,8.60
2023-02-16T12:25:03.732Z,9.50
2023-02-16T12:27:38.090Z,10.20
2023-02-16T12:30:09.236Z,8.20
2023-02-16T12:32:44.396Z,8.20
2023-02-16T12:35:31.156Z,7.90
2023-02-16T12:38:20.803Z,8.80
2023-02-16T12:40:56.969Z,10.40
2023-02-16T12:43:27.951Z,14.80
2023-02-16T12:45:56.438Z,30.10
2023-02-16T12:48:42.705Z,11.40
2023-02-16T12:51:14.741Z,7.90
2023-02-16T12:53:46.408Z,9.60
2023-02-16T12:56:20.567Z,15.00
2023-02-16T12:58:52.756Z,13.90
2023-02-16T13:01:23.058Z,34.30
2023-02-16T13:04:01.280Z,16.80
2023-02-16T13:06:43.280Z,25.20
2023-02-16T13:09:45.633Z,32.30
2023-02-16T13:12:28.409Z,17.70
2023-02-16T13:15:22.337Z,13.80
2023-02-16T13:17:57.952Z,15.20
2023-02-16T13:20:27.112Z,11.20
2023-02-16T13:23:16.008Z,14.10
2023-02-16T13:26:20.204Z,14.60
2023-02-16T13:29:07.335Z,16.30
2023-02-16T13:31:47.282Z,18.70
2023-02-16T13:34:24.301Z,12.10
2023-02-16T13:37:12.358Z,11.20
2023-02-16T13:39:55.570Z,9.90
2023-02-16T13:42:40.603Z,13.90
2023-02-16T13:45:20.562Z,35.60
2023-02-16T13:47:47.649Z,36.70
2023-02-16T13:50:26.349Z,21.90
2023-02-16T13:52:55.308Z,12.30
2023-02-16T13:55:36.891Z,13.00
2023-02-16T13:58:12.902Z,30.50
2023-02-16T14:00:50.159Z,50.40
2023-02-16T14:03:21.637Z,150.30
2023-02-16T14:05:53.062Z,165.30
2023-02-16T14:08:28.003Z,229.70
2023-02-16T14:11:00.227Z,156.00
2023-02-16T14:13:34.911Z,79.60
2023-02-16T14:16:16.564Z,42.70
2023-02-16T14:18:45.687Z,16.40
2023-02-16T14:21:27.947Z,15.20
2023-02-16T14:23:55.934Z,14.60
2023-02-16T14:26:25.757Z,10.40
2023-02-16T14:29:17.101Z,8.10
2023-02-16T14:31:52.858Z,6.60
2023-02-16T14:34:45.984Z,9.90
2023-02-16T14:37:16.428Z,16.80
2023-02-16T14:40:06.590Z,9.80
2023-02-16T14:42:32.031Z,13.10
2023-02-16T14:45:19.475Z,13.10
2023-02-16T14:48:08.662Z,13.70
2023-02-16T14:51:16.006Z,11.90
2023-02-16T14:54:21.299Z,8.10
2023-02-16T14:56:56.296Z,28.00
2023-02-16T14:59:28.371Z,15.40
2023-02-16T15:01:55.393Z,8.60
2023-02-16T15:04:29.734Z,16.80
2023-02-16T15:06:57.647Z,28.10
2023-02-16T15:09:33.095Z,31.60
2023-02-16T15:12:22.077Z,12.80
2023-02-16T15:14:52.652Z,11.80
2023-02-16T15:17:23.868Z,10.10
2023-02-16T15:19:51.939Z,13.40
2023-02-16T15:22:21.465Z,16.60
2023-02-16T15:24:58.289Z,19.30
2023-02-16T15:27:25.445Z,14.00
2023-02-16T15:30:05.697Z,10.00
2023-02-16T15:32:32.737Z,11.60
2023-02-16T15:35:13.439Z,11.20
2023-02-16T15:37:40.546Z,11.80
2023-02-16T15:40:30.449Z,13.10
2023-02-16T15:43:09.188Z,12.40
2023-02-16T15:45:37.456Z,11.40
2023-02-16T15:48:25.137Z,13.20
2023-02-16T15:50:54.514Z,15.10
2023-02-16T15:53:48.872Z,14.40
2023-02-16T15:56:27.414Z,19.20
2023-02-16T15:58:55.434Z,26.80
2023-02-16T16:01:32.370Z,27.10
2023-02-16T16:04:20.324Z,25.00
2023-02-16T16:06:47.760Z,33.40
2023-02-16T16:09:21.053Z,29.50
2023-02-16T16:11:48.468Z,28.30
2023-02-16T16:14:15.491Z,23.70
2023-02-16T16:16:43.428Z,20.10
2023-02-16T16:19:33.982Z,19.00
2023-02-16T16:22:01.968Z,19.90
2023-02-16T16:24:42.756Z,23.00
2023-02-16T16:27:11.183Z,17.70
2023-02-16T16:29:46.971Z,21.60
2023-02-16T16:32:24.868Z,22.10
2023-02-16T16:34:55.530Z,18.20
2023-02-16T16:37:31.170Z,20.90
2023-02-16T16:40:06.326Z,18.70
2023-02-16T16:42:36.007Z,15.30
2023-02-16T16:45:33.129Z,18.80
2023-02-16T16:47:59.989Z,18.00
2023-02-16T16:50:36.741Z,21.40
2023-02-16T16:53:30.269Z,19.40
2023-02-16T16:55:57.609Z,22.50
2023-02-16T16:58:24.386Z,29.80
2023-02-16T17:00:51.823Z,26.00
2023-02-16T17:03:19.039Z,33.80
2023-02-16T17:05:46.846Z,23.80
2023-02-16T17:08:14.650Z,24.20
2023-02-16T17:10:44.648Z,26.90
2023-02-16T17:13:17.443Z,23.90
2023-02-16T17:15:51.770Z,17.90
2023-02-16T17:18:20.494Z,21.00
2023-02-16T17:20:47.499Z,23.00
2023-02-16T17:23:18.550Z,23.70
2023-02-16T17:25:45.599Z,21.70
2023-02-16T17:28:13.875Z,25.80
2023-02-16T17:30:41.837Z,21.50
2023-02-16T17:33:09.344Z,19.20
2023-02-16T17:35:37.842Z,27.70
2023-02-16T17:38:26.041Z,24.80
2023-02-16T17:40:54.521Z,27.80
2023-02-16T17:43:22.603Z,25.40
2023-02-16T17:45:50.672Z,26.90
2023-02-16T17:48:28.289Z,22.20
2023-02-16T17:50:56.330Z,20.80
2023-02-16T17:53:24.075Z,22.00
2023-02-16T17:55:52.594Z,20.20
2023-02-16T17:58:23.322Z,18.80
2023-02-16T18:00:50.611Z,21.50
2023-02-16T18:03:18.528Z,21.30
2023-02-16T18:05:46.039Z,19.60
2023-02-16T18:08:13.022Z,20.10
2023-02-16T18:10:42.210Z,19.50
2023-02-16T18:13:11.195Z,19.60
2023-02-16T18:15:39.864Z,17.50
2023-02-16T18:18:07.301Z,16.30
2023-02-16T18:20:34.646Z,16.10
2023-02-16T18:23:02.135Z,19.50
2023-02-16T18:25:29.241Z,15.40
2023-02-16T18:27:56.328Z,16.20
2023-02-16T18:30:23.625Z,19.00
2023-02-16T18:32:51.414Z,19.60
2023-02-16T18:35:18.369Z,18.90
2023-02-16T18:37:45.489Z,22.50
2023-02-16T18:40:15.403Z,19.50
2023-02-16T18:42:44.193Z,20.40
2023-02-16T18:45:11.490Z,19.50
2023-02-16T18:47:38.544Z,17.10
2023-02-16T18:50:05.794Z,19.90
2023-02-16T18:52:32.841Z,18.60
2023-02-16T18:54:59.875Z,17.20
2023-02-16T18:57:26.577Z,15.60
2023-02-16T18:59:53.586Z,18.00
2023-02-16T19:02:20.717Z,25.70
2023-02-16T19:04:47.659Z,17.40
2023-02-16T19:07:14.949Z,20.50
2023-02-16T19:09:42.675Z,16.10
2023-02-16T19:12:09.930Z,16.40
2023-02-16T19:14:37.119Z,16.00
2023-02-16T19:17:05.615Z,17.50
2023-02-16T19:19:32.756Z,18.10
2023-02-16T19:21:59.893Z,19.40
2023-02-16T19:24:27.086Z,18.90
2023-02-16T19:26:56.719Z,24.10
2023-02-16T19:29:23.662Z,28.40
2023-02-16T19:31:50.714Z,30.10
2023-02-16T19:40:51.154Z,30.10
2023-02-16T19:43:20.579Z,31.50
2023-02-16T19:45:47.519Z,30.90
2023-02-16T19:48:18.540Z,33.30
2023-02-16T19:50:46.582Z,31.90
2023-02-16T19:53:13.990Z,32.30
2023-02-16T19:55:42.502Z,32.60
2023-02-16T19:58:09.465Z,26.30
2023-02-16T20:00:37.788Z,26.10
2023-02-16T20:03:05.177Z,27.60
2023-02-16T20:05:32.861Z,30.40
2023-02-16T20:08:01.154Z,29.60
2023-02-16T20:10:28.395Z,30.70
2023-02-16T20:12:55.726Z,27.20
2023-02-16T20:15:23.880Z,26.40
2023-02-16T20:17:52.193Z,21.40
2023-02-16T20:20:18.966Z,21.20
2023-02-16T20:22:46.447Z,18.40
2023-02-16T20:25:13.511Z,18.70
2023-02-16T20:27:43.161Z,18.90
2023-02-16T20:30:19.205Z,20.50
2023-02-16T20:32:48.220Z,17.70
2023-02-16T20:35:15.119Z,19.70
2023-02-16T20:37:43.270Z,19.60
2023-02-16T20:40:12.476Z,20.50
2023-02-16T20:42:42.610Z,18.20
2023-02-16T20:45:09.558Z,16.20
2023-02-16T20:47:36.367Z,18.40
2023-02-16T20:50:03.847Z,18.40
2023-02-16T20:52:30.882Z,19.80
2023-02-16T20:54:58.105Z,20.30
2023-02-16T20:57:27.295Z,19.20
2023-02-16T20:59:55.295Z,17.60
2023-02-16T21:02:33.241Z,20.40
2023-02-16T21:05:01.186Z,21.00
2023-02-16T21:07:28.648Z,19.10
2023-02-16T21:09:55.553Z,17.90
2023-02-16T21:19:25.677Z,19.40
2023-02-16T21:21:52.561Z,20.50
2023-02-16T21:24:19.583Z,19.20
2023-02-16T21:26:46.729Z,19.70
2023-02-16T21:29:13.444Z,25.20
2023-02-16T21:31:40.464Z,25.80
2023-02-16T21:34:08.297Z,22.40
2023-02-16T21:36:37.002Z,25.70
2023-02-16T21:39:06.951Z,34.10
2023-02-16T21:41:34.772Z,31.20
2023-02-16T21:44:46.242Z,34.60
2023-02-16T21:47:33.803Z,37.70
2023-02-16T21:50:01.033Z,33.90
2023-02-16T21:52:27.733Z,37.60
2023-02-16T21:55:13.314Z,33.30
2023-02-16T21:57:40.243Z,30.20
2023-02-16T22:00:14.881Z,27.90
2023-02-16T22:02:41.763Z,26.90
2023-02-16T22:05:11.183Z,28.70
2023-02-16T22:07:38.525Z,27.60
2023-02-16T22:10:09.002Z,29.20
2023-02-16T22:12:37.854Z,28.80
2023-02-16T22:15:05.292Z,24.90
2023-02-16T22:17:34.415Z,27.20
2023-02-16T22:20:01.569Z,25.90
2023-02-16T22:22:33.090Z,26.70
2023-02-16T22:25:00.607Z,25.00
2023-02-16T22:27:33.855Z,25.00
2023-02-16T22:30:01.001Z,26.20
2023-02-16T22:32:27.965Z,22.60
2023-02-16T22:34:54.747Z,24.40
2023-02-16T22:37:21.833Z,21.80
2023-02-16T22:39:48.849Z,24.10
2023-02-16T22:42:15.632Z,20.90
2023-02-16T22:44:42.705Z,22.30
2023-02-16T22:47:11.542Z,21.90
2023-02-16T22:49:43.575Z,23.40
2023-02-16T22:52:13.795Z,19.30
2023-02-16T22:54:41.150Z,21.60
2023-02-16T22:57:08.868Z,23.90
2023-02-16T22:59:36.665Z,18.90
2023-02-16T23:02:03.591Z,18.80
2023-02-16T23:04:30.407Z,19.40
2023-02-16T23:06:57.430Z,24.30
2023-02-16T23:09:24.370Z,23.00
2023-02-16T23:11:51.588Z,20.50
2023-02-16T23:14:18.556Z,25.50
2023-02-16T23:16:46.978Z,22.70
2023-02-16T23:19:15.454Z,25.30
2023-02-16T23:21:42.268Z,22.00
2023-02-16T23:24:17.212Z,22.50
2023-02-16T23:26:44.699Z,24.90
2023-02-16T23:29:11.709Z,22.40
2023-02-16T23:31:40.281Z,21.40
2023-02-16T23:34:07.596Z,19.20
2023-02-16T23:36:35.289Z,19.90
2023-02-16T23:39:05.681Z,20.00
2023-02-16T23:41:32.422Z,19.60
2023-02-16T23:44:01.163Z,16.90
2023-02-16T23:46:28.203Z,16.80
2023-02-16T23:48:55.045Z,21.60
2023-02-16T23:51:21.673Z,21.60
2023-02-16T23:53:48.756Z,23.50
2023-02-16T23:56:18.377Z,27.80
2023-02-16T23:58:45.305Z,23.80
